Como, Indiana
Current Conditions -  °F | °C
As of 5:53 AM on Wednesday 26 Nov 2014 (Local Time) from KMIE Reporting Station
Overcast Overcast  
Wind Chill: 20°   Ceiling: 1300
Heat Index: 27°   Visibility: 10mi
Dew Point: 22°   Wind: 6mph
Humidity: 81%   Direction: 50°NE
Pressure: 30.13"   Gusts: NA
Location:  40.4312°N, 85.0058°W
Report Text: KMIE 261053Z AUTO 05005KT 10SM OVC013 M03/M06 A3013 RMK AO2 SLP209 T10281056
Loading
Personal Weather Stations






























Interactive Weather Map New forecast layout! Learn more

10-Day Weather Forecast

Advertisements
Track Severe Weather on mobile